createdAt,value
2022-11-27T00:00:38.135Z,84.14
2022-11-27T00:01:38.124Z,84.13
2022-11-27T00:02:40.757Z,84.15
2022-11-27T00:03:38.343Z,84.17
2022-11-27T00:04:38.103Z,84.12
2022-11-27T00:05:38.083Z,84.11
2022-11-27T00:06:38.052Z,84.16
2022-11-27T00:07:38.088Z,84.22
2022-11-27T00:08:38.039Z,84.23
2022-11-27T00:09:38.470Z,84.25
2022-11-27T00:10:38.023Z,84.36
2022-11-27T00:11:37.981Z,84.24
2022-11-27T00:12:37.993Z,84.22
2022-11-27T00:13:37.971Z,84.11
2022-11-27T00:14:37.950Z,84.12
2022-11-27T00:15:38.026Z,84.20
2022-11-27T00:16:37.952Z,84.19
2022-11-27T00:17:37.924Z,84.19
2022-11-27T00:18:37.902Z,84.19
2022-11-27T00:19:38.118Z,84.20
2022-11-27T00:20:37.871Z,84.24
2022-11-27T00:21:37.863Z,84.12
2022-11-27T00:22:37.862Z,84.11
2022-11-27T00:23:37.839Z,84.09
2022-11-27T00:24:38.023Z,84.18
2022-11-27T00:25:37.811Z,84.24
2022-11-27T00:26:38.543Z,84.40
2022-11-27T00:27:37.782Z,84.49
2022-11-27T00:28:37.781Z,84.56
2022-11-27T00:29:37.752Z,84.61
2022-11-27T00:30:37.734Z,84.65
2022-11-27T00:31:38.123Z,84.69
2022-11-27T00:32:37.710Z,84.52
2022-11-27T00:33:37.730Z,84.44
2022-11-27T00:34:37.815Z,84.54
2022-11-27T00:35:37.672Z,84.48
2022-11-27T00:36:37.663Z,84.74
2022-11-27T00:37:37.651Z,84.71
2022-11-27T00:38:39.194Z,84.46
2022-11-27T00:39:37.628Z,84.47
2022-11-27T00:40:37.623Z,84.41
2022-11-27T00:41:37.591Z,84.39
2022-11-27T00:42:37.580Z,84.46
2022-11-27T00:43:44.198Z,84.46
2022-11-27T00:44:38.851Z,84.48
2022-11-27T00:45:37.540Z,84.49
2022-11-27T00:46:37.591Z,84.41
2022-11-27T00:47:37.519Z,84.42
2022-11-27T00:48:37.501Z,84.39
2022-11-27T00:49:37.490Z,84.29
2022-11-27T00:50:37.470Z,84.36
2022-11-27T00:51:37.459Z,84.39
2022-11-27T00:52:37.458Z,84.35
2022-11-27T00:53:37.439Z,84.39
2022-11-27T00:54:37.602Z,84.33
2022-11-27T00:55:37.425Z,84.31
2022-11-27T00:56:37.388Z,84.25
2022-11-27T00:57:37.388Z,84.25
2022-11-27T00:58:37.399Z,84.19
2022-11-27T00:59:37.359Z,84.14
2022-11-27T01:00:37.338Z,84.24
2022-11-27T01:01:37.358Z,84.18
2022-11-27T01:02:37.348Z,84.15
2022-11-27T01:03:37.308Z,84.13
2022-11-27T01:04:37.455Z,84.16
2022-11-27T01:05:37.285Z,84.22
2022-11-27T01:06:37.408Z,84.32
2022-11-27T01:07:37.294Z,84.39
2022-11-27T01:08:37.237Z,84.33
2022-11-27T01:09:37.238Z,84.33
2022-11-27T01:10:37.238Z,84.39
2022-11-27T01:11:37.209Z,84.39
2022-11-27T01:12:37.177Z,84.39
2022-11-27T01:13:37.169Z,84.45
2022-11-27T01:14:37.346Z,84.46
2022-11-27T01:15:37.176Z,84.44
2022-11-27T01:16:42.037Z,84.49
2022-11-27T01:17:38.117Z,84.54
2022-11-27T01:18:37.109Z,84.44
2022-11-27T01:19:37.086Z,84.50
2022-11-27T01:20:37.076Z,84.44
2022-11-27T01:21:37.057Z,84.37
2022-11-27T01:22:37.088Z,84.33
2022-11-27T01:23:37.034Z,84.23
2022-11-27T01:24:37.176Z,84.31
2022-11-27T01:25:37.007Z,84.28
2022-11-27T01:26:36.988Z,84.22
2022-11-27T01:27:36.981Z,84.29
2022-11-27T01:28:36.995Z,84.28
2022-11-27T01:29:36.948Z,84.34
2022-11-27T01:30:36.946Z,84.34
2022-11-27T01:31:36.968Z,84.27
2022-11-27T01:32:36.917Z,84.29
2022-11-27T01:33:36.907Z,84.33
2022-11-27T01:34:36.972Z,84.26
2022-11-27T01:35:36.875Z,84.10
2022-11-27T01:36:36.865Z,84.12
2022-11-27T01:37:36.845Z,84.10
2022-11-27T01:38:36.836Z,84.06
2022-11-27T01:39:36.817Z,84.01
2022-11-27T01:40:36.835Z,84.02
2022-11-27T01:41:36.795Z,84.02
2022-11-27T01:42:36.785Z,84.06
2022-11-27T01:43:36.765Z,84.07
2022-11-27T01:44:36.871Z,84.09
2022-11-27T01:45:36.739Z,84.18
2022-11-27T01:46:36.796Z,84.24
2022-11-27T01:47:36.712Z,84.33
2022-11-27T01:48:36.704Z,84.28
2022-11-27T01:49:36.688Z,84.33
2022-11-27T01:50:36.675Z,84.34
2022-11-27T01:51:36.657Z,84.38
2022-11-27T01:52:36.675Z,84.42
2022-11-27T01:53:36.634Z,84.35
2022-11-27T01:54:36.715Z,84.49
2022-11-27T01:55:36.606Z,84.43
2022-11-27T01:56:36.602Z,84.49
2022-11-27T01:57:36.582Z,84.50
2022-11-27T01:58:36.594Z,84.55
2022-11-27T01:59:36.557Z,84.60
2022-11-27T02:00:36.554Z,84.68
2022-11-27T02:01:36.605Z,84.56
2022-11-27T02:02:36.578Z,84.58
2022-11-27T02:03:36.501Z,84.47
2022-11-27T02:04:36.514Z,84.36
2022-11-27T02:05:36.474Z,84.40
2022-11-27T02:06:36.490Z,84.36
2022-11-27T02:07:36.496Z,84.43
2022-11-27T02:08:36.434Z,84.39
2022-11-27T02:09:36.423Z,84.48
2022-11-27T02:10:36.445Z,84.33
2022-11-27T02:11:36.395Z,84.24
2022-11-27T02:12:36.392Z,84.10
2022-11-27T02:13:36.374Z,83.92
2022-11-27T02:14:36.373Z,83.77
2022-11-27T02:15:36.381Z,83.86
2022-11-27T02:16:36.434Z,83.77
2022-11-27T02:17:36.313Z,83.72
2022-11-27T02:18:36.302Z,83.71
2022-11-27T02:19:36.307Z,83.83
2022-11-27T02:20:36.310Z,83.85
2022-11-27T02:21:36.263Z,83.71
2022-11-27T02:22:36.276Z,83.76
2022-11-27T02:23:36.257Z,83.81
2022-11-27T02:24:36.222Z,83.82
2022-11-27T02:25:36.204Z,83.78
2022-11-27T02:26:36.202Z,83.75
2022-11-27T02:27:36.192Z,83.73
2022-11-27T02:28:36.199Z,83.75
2022-11-27T02:29:36.158Z,83.73
2022-11-27T02:30:36.152Z,83.68
2022-11-27T02:31:36.159Z,83.63
2022-11-27T02:32:36.122Z,83.66
2022-11-27T02:33:36.102Z,83.67
2022-11-27T02:34:36.112Z,83.71
2022-11-27T02:35:36.076Z,83.50
2022-11-27T02:36:37.062Z,83.58
2022-11-27T02:37:36.056Z,83.64
2022-11-27T02:38:36.041Z,83.71
2022-11-27T02:39:36.021Z,83.78
2022-11-27T02:40:36.031Z,83.87
2022-11-27T02:41:35.994Z,83.61
2022-11-27T02:42:35.992Z,83.53
2022-11-27T02:43:35.971Z,83.58
2022-11-27T02:44:35.961Z,83.62
2022-11-27T02:45:35.943Z,83.68
2022-11-27T02:46:36.037Z,83.61
2022-11-27T02:47:35.911Z,83.66
2022-11-27T02:48:35.911Z,83.50
2022-11-27T02:49:35.882Z,83.65
2022-11-27T02:50:35.881Z,83.65
2022-11-27T02:51:35.871Z,83.75
2022-11-27T02:52:35.881Z,83.96
2022-11-27T02:53:35.833Z,84.00
2022-11-27T02:54:35.830Z,83.87
2022-11-27T02:55:35.810Z,83.85
2022-11-27T02:56:35.813Z,83.99
2022-11-27T02:57:35.790Z,84.14
2022-11-27T02:58:35.801Z,84.12
2022-11-27T02:59:35.759Z,84.20
2022-11-27T03:00:35.750Z,84.25
2022-11-27T03:01:35.781Z,84.26
2022-11-27T03:02:35.801Z,84.19
2022-11-27T03:03:35.711Z,84.38
2022-11-27T03:04:35.720Z,84.45
2022-11-27T03:05:35.682Z,84.27
2022-11-27T03:06:35.668Z,84.31
2022-11-27T03:07:35.680Z,84.20
2022-11-27T03:08:35.639Z,84.20
2022-11-27T03:09:35.628Z,84.18
2022-11-27T03:10:35.640Z,84.19
2022-11-27T03:11:35.598Z,84.19
2022-11-27T03:12:35.589Z,84.24
2022-11-27T03:13:35.569Z,84.30
2022-11-27T03:14:35.565Z,84.63
2022-11-27T03:15:35.596Z,84.65
2022-11-27T03:16:35.640Z,84.50
2022-11-27T03:17:35.521Z,84.32
2022-11-27T03:18:35.508Z,84.46
2022-11-27T03:19:35.489Z,84.54
2022-11-27T03:20:35.489Z,84.46
2022-11-27T03:21:35.461Z,84.43
2022-11-27T03:22:35.479Z,84.44
2022-11-27T03:23:35.437Z,84.56
2022-11-27T03:24:35.439Z,84.73
2022-11-27T03:25:35.413Z,84.85
2022-11-27T03:26:35.408Z,84.99
2022-11-27T03:27:35.387Z,85.03
2022-11-27T03:28:35.388Z,85.33
2022-11-27T03:29:35.360Z,85.46
2022-11-27T03:30:35.353Z,85.38
2022-11-27T03:31:35.414Z,85.25
2022-11-27T03:32:35.340Z,85.08
2022-11-27T03:33:35.307Z,84.94
2022-11-27T03:34:35.316Z,85.05
2022-11-27T03:35:35.284Z,85.20
2022-11-27T03:36:35.277Z,85.12
2022-11-27T03:37:35.255Z,85.26
2022-11-27T03:38:35.249Z,85.44
2022-11-27T03:39:35.233Z,85.43
2022-11-27T03:40:35.239Z,85.64
2022-11-27T03:41:35.199Z,85.57
2022-11-27T03:42:35.203Z,85.48
2022-11-27T03:43:35.180Z,85.31
2022-11-27T03:44:35.197Z,85.42
2022-11-27T03:45:35.139Z,85.61
2022-11-27T03:46:35.214Z,85.77
2022-11-27T03:47:35.169Z,85.71
2022-11-27T03:48:35.111Z,85.72
2022-11-27T03:49:35.096Z,85.71
2022-11-27T03:50:35.086Z,85.74
2022-11-27T03:51:35.079Z,85.87
2022-11-27T03:52:35.076Z,86.08
2022-11-27T03:53:35.043Z,86.28
2022-11-27T03:54:35.026Z,86.52
2022-11-27T03:55:35.016Z,86.46
2022-11-27T03:56:35.005Z,86.42
2022-11-27T03:57:34.986Z,86.50
2022-11-27T03:58:34.996Z,86.60
2022-11-27T03:59:34.959Z,86.67
2022-11-27T04:00:34.948Z,86.79
2022-11-27T04:01:34.983Z,87.04
2022-11-27T04:02:34.927Z,87.08
2022-11-27T04:03:34.944Z,87.07
2022-11-27T04:04:34.914Z,87.12
2022-11-27T04:05:34.875Z,87.11
2022-11-27T04:06:34.866Z,87.25
2022-11-27T04:07:34.894Z,87.30
2022-11-27T04:08:34.844Z,87.63
2022-11-27T04:09:34.827Z,88.05
2022-11-27T04:10:34.852Z,87.99
2022-11-27T04:11:34.793Z,87.93
2022-11-27T04:12:34.795Z,88.09
2022-11-27T04:13:34.774Z,88.04
2022-11-27T04:14:34.784Z,88.01
2022-11-27T04:15:34.744Z,87.68
2022-11-27T04:16:34.809Z,87.58
2022-11-27T04:17:34.715Z,87.54
2022-11-27T04:18:34.713Z,87.52
2022-11-27T04:19:34.693Z,87.48
2022-11-27T04:20:34.684Z,87.42
2022-11-27T04:21:34.671Z,87.41
2022-11-27T04:22:34.673Z,87.43
2022-11-27T04:23:34.643Z,87.35
2022-11-27T04:24:34.633Z,87.35
2022-11-27T04:25:34.627Z,87.31
2022-11-27T04:26:34.613Z,87.25
2022-11-27T04:27:34.582Z,87.34
2022-11-27T04:28:34.601Z,87.36
2022-11-27T04:29:34.572Z,87.36
2022-11-27T04:30:34.559Z,87.54
2022-11-27T04:31:34.648Z,87.51
2022-11-27T04:32:34.523Z,87.50
2022-11-27T04:33:34.509Z,87.63
2022-11-27T04:34:34.523Z,87.56
2022-11-27T04:35:34.482Z,87.42
2022-11-27T04:36:38.958Z,87.62
2022-11-27T04:37:35.456Z,87.63
2022-11-27T04:38:34.460Z,87.49
2022-11-27T04:39:34.431Z,87.51
2022-11-27T04:40:34.442Z,87.31
2022-11-27T04:41:34.414Z,87.35
2022-11-27T04:42:34.392Z,87.46
2022-11-27T04:43:34.381Z,87.49
2022-11-27T04:44:34.370Z,87.37
2022-11-27T04:45:34.351Z,87.39
2022-11-27T04:46:34.402Z,87.62
2022-11-27T04:47:34.321Z,87.72
2022-11-27T04:48:34.322Z,87.99
2022-11-27T04:49:34.307Z,87.94
2022-11-27T04:50:34.292Z,87.72
2022-11-27T04:51:34.268Z,87.72
2022-11-27T04:52:34.289Z,87.74
2022-11-27T04:53:34.249Z,87.78
2022-11-27T04:54:34.242Z,87.87
2022-11-27T04:55:34.219Z,87.94
2022-11-27T04:56:34.218Z,87.76
2022-11-27T04:57:34.191Z,87.63
2022-11-27T04:58:34.209Z,87.64
2022-11-27T04:59:34.170Z,87.79
2022-11-27T05:00:34.225Z,87.74
2022-11-27T05:01:34.149Z,87.74
2022-11-27T05:02:34.167Z,87.78
2022-11-27T05:03:34.120Z,87.74
2022-11-27T05:04:34.139Z,87.65
2022-11-27T05:05:34.089Z,87.76
2022-11-27T05:06:34.091Z,87.79
2022-11-27T05:07:34.141Z,87.79
2022-11-27T05:08:34.062Z,87.89
2022-11-27T05:09:34.038Z,88.01
2022-11-27T05:10:34.058Z,87.96
2022-11-27T05:11:34.008Z,88.12
2022-11-27T05:12:34.007Z,88.40
2022-11-27T05:13:33.987Z,88.26
2022-11-27T05:14:33.986Z,88.06
2022-11-27T05:15:33.956Z,88.13
2022-11-27T05:16:33.991Z,88.33
2022-11-27T05:17:33.936Z,88.13
2022-11-27T05:18:33.927Z,88.07
2022-11-27T05:19:33.907Z,88.34
2022-11-27T05:20:33.896Z,88.62
2022-11-27T05:21:33.875Z,88.94
2022-11-27T05:22:33.896Z,88.68
2022-11-27T05:23:33.856Z,88.52
2022-11-27T05:24:33.845Z,88.29
2022-11-27T05:25:33.826Z,88.10
2022-11-27T05:26:33.825Z,88.10
2022-11-27T05:27:33.804Z,88.01
2022-11-27T05:28:33.824Z,88.00
2022-11-27T05:29:33.779Z,88.18
2022-11-27T05:30:33.764Z,88.21
2022-11-27T05:31:33.886Z,88.08
2022-11-27T05:32:33.735Z,88.04
2022-11-27T05:33:33.724Z,88.36
2022-11-27T05:34:33.732Z,88.70
2022-11-27T05:35:33.695Z,88.42
2022-11-27T05:36:33.693Z,88.11
2022-11-27T05:37:33.673Z,88.09
2022-11-27T05:38:33.662Z,88.40
2022-11-27T05:39:33.646Z,88.58
2022-11-27T05:40:33.664Z,88.20
2022-11-27T05:41:33.613Z,87.88
2022-11-27T05:42:33.614Z,87.78
2022-11-27T05:43:33.592Z,87.90
2022-11-27T05:44:33.583Z,87.83
2022-11-27T05:45:33.565Z,87.92
2022-11-27T05:46:33.697Z,88.26
2022-11-27T05:47:33.532Z,88.77
2022-11-27T05:48:33.532Z,88.97
2022-11-27T05:49:33.512Z,88.74
2022-11-27T05:50:33.501Z,88.69
2022-11-27T05:51:33.491Z,88.94
2022-11-27T05:52:33.523Z,88.69
2022-11-27T05:53:33.466Z,88.56
2022-11-27T05:54:33.451Z,88.22
2022-11-27T05:55:33.441Z,88.37
2022-11-27T05:56:33.431Z,88.41
2022-11-27T05:57:33.403Z,88.33
2022-11-27T05:58:33.421Z,88.16
2022-11-27T05:59:33.381Z,87.98
2022-11-27T06:00:33.371Z,88.05
2022-11-27T06:01:33.384Z,87.93
2022-11-27T06:02:33.475Z,87.86
2022-11-27T06:03:33.371Z,87.92
2022-11-27T06:04:33.340Z,88.14
2022-11-27T06:05:33.301Z,88.11
2022-11-27T06:06:33.304Z,87.89
2022-11-27T06:07:33.342Z,87.81
2022-11-27T06:08:33.270Z,87.79
2022-11-27T06:09:33.250Z,87.64
2022-11-27T06:10:33.279Z,87.57
2022-11-27T06:11:33.227Z,87.61
2022-11-27T06:12:33.219Z,87.88
2022-11-27T06:13:33.199Z,87.88
2022-11-27T06:14:33.188Z,87.97
2022-11-27T06:15:33.175Z,88.12
2022-11-27T06:16:33.252Z,88.38
2022-11-27T06:17:33.139Z,88.49
2022-11-27T06:18:33.141Z,88.43
2022-11-27T06:19:33.119Z,88.26
2022-11-27T06:20:33.117Z,88.15
2022-11-27T06:21:33.086Z,88.36
2022-11-27T06:22:33.108Z,88.41
2022-11-27T06:23:33.069Z,88.39
2022-11-27T06:24:33.057Z,88.40
2022-11-27T06:25:33.037Z,88.49
2022-11-27T06:26:33.028Z,88.63
2022-11-27T06:27:33.016Z,88.58
2022-11-27T06:28:33.040Z,88.64
2022-11-27T06:29:32.986Z,88.81
2022-11-27T06:30:32.976Z,88.63
2022-11-27T06:31:33.084Z,88.63
2022-11-27T06:32:32.957Z,88.75
2022-11-27T06:33:32.936Z,88.58
2022-11-27T06:34:32.954Z,88.65
2022-11-27T06:35:32.905Z,88.77
2022-11-27T06:36:32.918Z,88.73
2022-11-27T06:37:32.886Z,88.76
2022-11-27T06:38:32.876Z,88.72
2022-11-27T06:39:32.855Z,88.82
2022-11-27T06:40:32.882Z,88.91
2022-11-27T06:41:32.835Z,88.94
2022-11-27T06:42:32.824Z,88.90
2022-11-27T06:43:32.805Z,88.79
2022-11-27T06:44:32.796Z,88.73
2022-11-27T06:45:32.793Z,88.63
2022-11-27T06:46:32.805Z,88.60
2022-11-27T06:47:32.752Z,88.60
2022-11-27T06:48:32.743Z,88.55
2022-11-27T06:49:32.724Z,88.50
2022-11-27T06:50:32.726Z,88.49
2022-11-27T06:51:32.697Z,88.59
2022-11-27T06:52:37.187Z,88.77
2022-11-27T06:53:33.672Z,88.73
2022-11-27T06:54:32.663Z,88.74
2022-11-27T06:55:32.654Z,88.77
2022-11-27T06:56:32.640Z,88.81
2022-11-27T06:57:32.621Z,88.87
2022-11-27T06:58:32.633Z,89.12
2022-11-27T06:59:32.594Z,89.12
2022-11-27T07:00:32.630Z,89.10
2022-11-27T07:01:32.705Z,89.02
2022-11-27T07:02:32.579Z,89.00
2022-11-27T07:03:32.551Z,89.02
2022-11-27T07:04:32.553Z,89.02
2022-11-27T07:05:32.511Z,88.94
2022-11-27T07:06:32.508Z,88.87
2022-11-27T07:07:32.532Z,88.81
2022-11-27T07:08:32.481Z,89.03
2022-11-27T07:09:32.460Z,89.09
2022-11-27T07:10:32.489Z,89.01
2022-11-27T07:11:32.440Z,89.05
2022-11-27T07:12:32.431Z,88.98
2022-11-27T07:13:32.410Z,88.97
2022-11-27T07:14:32.400Z,89.04
2022-11-27T07:15:32.381Z,89.04
2022-11-27T07:16:32.457Z,89.01
2022-11-27T07:17:32.359Z,88.98
2022-11-27T07:18:32.350Z,89.08
2022-11-27T07:19:32.334Z,89.12
2022-11-27T07:20:32.320Z,89.15
2022-11-27T07:21:32.305Z,89.11
2022-11-27T07:22:32.318Z,89.13
2022-11-27T07:23:32.269Z,89.21
2022-11-27T07:24:32.270Z,89.38
2022-11-27T07:25:32.248Z,89.43
2022-11-27T07:26:32.255Z,89.43
2022-11-27T07:27:32.220Z,89.31
2022-11-27T07:28:32.248Z,89.25
2022-11-27T07:29:32.198Z,89.20
2022-11-27T07:30:32.196Z,89.13
2022-11-27T07:31:32.227Z,89.02
2022-11-27T07:32:32.170Z,88.98
2022-11-27T07:33:32.140Z,88.86
2022-11-27T07:34:33.177Z,88.86
2022-11-27T07:35:32.126Z,88.86
2022-11-27T07:36:32.107Z,88.86
2022-11-27T07:37:32.098Z,88.89
2022-11-27T07:38:32.087Z,89.04
2022-11-27T07:40:00.281Z,89.09
2022-11-27T07:40:33.076Z,89.13
2022-11-27T07:41:34.102Z,89.11
2022-11-27T07:42:39.550Z,89.09
2022-11-27T07:43:33.043Z,89.13
2022-11-27T07:44:32.007Z,89.25
2022-11-27T07:45:32.039Z,89.24
2022-11-27T07:46:31.997Z,89.26
2022-11-27T07:47:31.965Z,89.29
2022-11-27T07:48:31.966Z,89.31
2022-11-27T07:49:31.935Z,89.39
2022-11-27T07:50:31.927Z,89.38
2022-11-27T07:51:31.917Z,89.15
2022-11-27T07:52:34.510Z,89.03
2022-11-27T07:53:32.885Z,88.94
2022-11-27T07:54:31.874Z,88.89
2022-11-27T07:55:31.865Z,88.85
2022-11-27T07:56:31.854Z,88.93
2022-11-27T07:57:31.836Z,89.02
2022-11-27T07:58:31.856Z,89.07
2022-11-27T07:59:31.805Z,88.95
2022-11-27T08:00:31.805Z,88.93
2022-11-27T08:01:31.840Z,88.98
2022-11-27T08:02:31.774Z,89.07
2022-11-27T08:03:31.754Z,89.16
2022-11-27T08:04:31.818Z,89.24
2022-11-27T08:05:31.732Z,89.35
2022-11-27T08:06:31.712Z,89.34
2022-11-27T08:07:31.737Z,89.34
2022-11-27T08:08:31.695Z,89.37
2022-11-27T08:09:31.673Z,89.54
2022-11-27T08:10:31.699Z,89.60
2022-11-27T08:11:31.643Z,89.52
2022-11-27T08:12:31.642Z,89.43
2022-11-27T08:13:31.625Z,89.48
2022-11-27T08:14:31.622Z,89.54
2022-11-27T08:15:31.592Z,89.61
2022-11-27T08:16:31.715Z,89.61
2022-11-27T08:17:31.575Z,89.63
2022-11-27T08:18:31.562Z,89.68
2022-11-27T08:19:31.541Z,89.64
2022-11-27T08:20:31.540Z,89.74
2022-11-27T08:21:31.511Z,89.72
2022-11-27T08:22:31.550Z,89.85
2022-11-27T08:23:31.491Z,90.04
2022-11-27T08:24:31.481Z,90.20
2022-11-27T08:25:31.460Z,90.29
2022-11-27T08:26:31.452Z,90.26
2022-11-27T08:27:31.438Z,90.33
2022-11-27T08:28:31.459Z,91.34
2022-11-27T08:29:34.032Z,91.88
2022-11-27T08:30:31.412Z,91.46
2022-11-27T08:31:31.418Z,90.96
2022-11-27T08:32:31.381Z,90.57
2022-11-27T08:33:31.360Z,90.43
2022-11-27T08:34:31.369Z,90.41
2022-11-27T08:35:31.337Z,90.46
2022-11-27T08:36:31.329Z,90.61
2022-11-27T08:37:31.311Z,90.73
2022-11-27T08:38:31.297Z,90.88
2022-11-27T08:39:31.279Z,90.93
2022-11-27T08:40:31.300Z,91.04
2022-11-27T08:41:31.259Z,91.11
2022-11-27T08:42:31.238Z,91.09
2022-11-27T08:43:31.356Z,91.08
2022-11-27T08:44:31.218Z,91.02
2022-11-27T08:45:31.241Z,90.95
2022-11-27T08:46:31.228Z,90.85
2022-11-27T08:47:31.176Z,90.64
2022-11-27T08:48:31.167Z,90.71
2022-11-27T08:49:31.148Z,91.06
2022-11-27T08:50:31.136Z,90.93
2022-11-27T08:51:31.127Z,90.50
2022-11-27T08:52:31.147Z,90.32
2022-11-27T08:53:31.109Z,90.25
2022-11-27T08:54:31.086Z,90.60
2022-11-27T08:55:31.067Z,90.98
2022-11-27T08:56:31.065Z,90.91
2022-11-27T08:57:31.037Z,91.06
2022-11-27T08:58:31.068Z,91.03
2022-11-27T08:59:31.017Z,90.96
2022-11-27T09:00:31.006Z,90.68
2022-11-27T09:01:31.067Z,90.43
2022-11-27T09:02:30.986Z,89.94
2022-11-27T09:03:30.965Z,89.65
2022-11-27T09:04:31.067Z,89.31
2022-11-27T09:05:30.937Z,89.14
2022-11-27T09:06:30.927Z,89.33
2022-11-27T09:07:30.931Z,89.26
2022-11-27T09:08:30.906Z,89.31
2022-11-27T09:09:30.899Z,89.72
2022-11-27T09:10:30.895Z,89.90
2022-11-27T09:11:30.855Z,89.91
2022-11-27T09:12:30.853Z,89.68
2022-11-27T09:13:30.826Z,89.32
2022-11-27T09:14:30.825Z,88.76
2022-11-27T09:15:30.804Z,88.67
2022-11-27T09:16:30.906Z,88.57
2022-11-27T09:17:30.784Z,88.37
2022-11-27T09:18:30.775Z,88.23
2022-11-27T09:19:30.764Z,88.04
2022-11-27T09:20:30.744Z,87.92
2022-11-27T09:21:30.726Z,87.50
2022-11-27T09:22:30.764Z,87.45
2022-11-27T09:23:30.707Z,87.30
2022-11-27T09:24:30.693Z,87.66
2022-11-27T09:25:30.673Z,87.83
2022-11-27T09:26:30.664Z,87.61
2022-11-27T09:27:30.645Z,87.57
2022-11-27T09:28:31.813Z,87.31
2022-11-27T09:29:30.625Z,87.26
2022-11-27T09:30:30.613Z,87.19
2022-11-27T09:31:30.620Z,86.92
2022-11-27T09:32:30.584Z,86.66
2022-11-27T09:33:30.563Z,86.32
2022-11-27T09:34:36.023Z,86.51
2022-11-27T09:35:31.625Z,86.49
2022-11-27T09:36:30.534Z,86.12
2022-11-27T09:37:30.513Z,86.07
2022-11-27T09:38:30.504Z,85.93
2022-11-27T09:39:30.502Z,85.92
2022-11-27T09:40:30.509Z,85.85
2022-11-27T09:41:30.462Z,85.28
2022-11-27T09:42:30.452Z,85.00
2022-11-27T09:43:30.431Z,84.79
2022-11-27T09:44:30.434Z,84.77
2022-11-27T09:45:30.455Z,84.87
2022-11-27T09:46:30.428Z,84.54
2022-11-27T09:47:30.382Z,84.27
2022-11-27T09:48:30.385Z,84.02
2022-11-27T09:49:30.371Z,83.83
2022-11-27T09:50:30.354Z,83.57
2022-11-27T09:51:30.321Z,83.95
2022-11-27T09:52:30.351Z,84.86
2022-11-27T09:53:30.300Z,85.09
2022-11-27T09:54:30.299Z,84.20
2022-11-27T09:55:30.271Z,83.48
2022-11-27T09:56:30.273Z,83.58
2022-11-27T09:57:30.251Z,84.39
2022-11-27T09:58:30.263Z,83.54
2022-11-27T09:59:30.230Z,83.12
2022-11-27T10:00:30.222Z,82.61
2022-11-27T10:01:38.236Z,81.18
2022-11-27T10:02:31.360Z,80.75
2022-11-27T10:03:30.232Z,80.84
2022-11-27T10:04:39.885Z,80.96
2022-11-27T10:05:31.141Z,81.20
2022-11-27T10:06:30.130Z,81.13
2022-11-27T10:07:30.142Z,80.64
2022-11-27T10:08:30.111Z,79.95
2022-11-27T10:09:30.091Z,80.01
2022-11-27T10:10:30.110Z,80.40
2022-11-27T10:11:30.065Z,79.69
2022-11-27T10:12:30.061Z,79.28
2022-11-27T10:13:30.032Z,79.67
2022-11-27T10:14:30.029Z,80.08
2022-11-27T10:15:30.007Z,79.63
2022-11-27T10:16:30.060Z,79.67
2022-11-27T10:17:29.982Z,80.16
2022-11-27T10:18:29.988Z,79.77
2022-11-27T10:19:29.967Z,79.66
2022-11-27T10:20:29.948Z,80.18
2022-11-27T10:21:29.930Z,78.88
2022-11-27T10:22:29.959Z,78.95
2022-11-27T10:23:29.899Z,79.30
2022-11-27T10:24:29.898Z,78.09
2022-11-27T10:25:29.869Z,77.68
2022-11-27T10:26:29.870Z,77.77
2022-11-27T10:27:29.849Z,77.68
2022-11-27T10:28:29.882Z,77.74
2022-11-27T10:29:29.829Z,78.45
2022-11-27T10:30:29.823Z,78.75
2022-11-27T10:31:29.828Z,78.78
2022-11-27T10:33:30.799Z,77.46
2022-11-27T10:34:29.761Z,77.70
2022-11-27T10:35:29.739Z,77.98
2022-11-27T10:36:29.738Z,76.61
2022-11-27T10:37:29.709Z,76.34
2022-11-27T10:38:29.698Z,76.76
2022-11-27T10:39:29.715Z,76.74
2022-11-27T10:40:29.678Z,77.25
2022-11-27T10:42:30.648Z,78.31
2022-11-27T10:43:29.630Z,77.18
2022-11-27T10:44:29.625Z,76.91
2022-11-27T10:45:29.684Z,77.12
2022-11-27T10:46:29.667Z,77.63
2022-11-27T10:47:33.453Z,78.31
2022-11-27T10:48:29.572Z,77.98
2022-11-27T10:49:29.568Z,76.77
2022-11-27T10:50:29.539Z,76.67
2022-11-27T10:51:29.548Z,76.01
2022-11-27T10:52:29.506Z,76.27
2022-11-27T10:53:29.514Z,76.29
2022-11-27T10:54:29.488Z,76.21
2022-11-27T10:55:29.478Z,76.32
2022-11-27T10:56:29.465Z,76.29
2022-11-27T10:57:29.467Z,76.89
2022-11-27T10:58:29.428Z,76.91
2022-11-27T10:59:33.210Z,75.94
2022-11-27T11:00:30.408Z,77.18
2022-11-27T11:01:29.512Z,77.18
2022-11-27T11:02:29.418Z,77.44
2022-11-27T11:03:29.407Z,77.15
2022-11-27T11:04:48.473Z,77.79
2022-11-27T11:05:44.974Z,76.88
2022-11-27T11:06:30.337Z,76.56
2022-11-27T11:07:29.381Z,76.79
2022-11-27T11:08:29.308Z,76.85
2022-11-27T11:09:29.316Z,76.39
2022-11-27T11:10:29.284Z,76.44
2022-11-27T11:11:29.267Z,76.04
2022-11-27T11:12:29.248Z,76.66
2022-11-27T11:13:29.237Z,77.04
2022-11-27T11:14:29.241Z,76.85
2022-11-27T11:15:29.227Z,77.13
2022-11-27T11:16:34.479Z,76.92
2022-11-27T11:17:30.264Z,77.68
2022-11-27T11:18:29.186Z,77.36
2022-11-27T11:19:29.173Z,77.43
2022-11-27T11:20:29.147Z,77.05
2022-11-27T11:21:29.161Z,77.18
2022-11-27T11:22:29.127Z,77.29
2022-11-27T11:23:29.108Z,78.29
2022-11-27T11:24:29.096Z,78.19
2022-11-27T11:25:29.077Z,77.68
2022-11-27T11:26:29.067Z,77.59
2022-11-27T11:27:29.077Z,77.56
2022-11-27T11:28:29.047Z,77.14
2022-11-27T11:29:29.035Z,77.08
2022-11-27T11:30:29.025Z,75.38
2022-11-27T11:31:29.036Z,75.59
2022-11-27T11:32:28.995Z,76.74
2022-11-27T11:33:28.995Z,77.55
2022-11-27T11:34:28.968Z,77.17
2022-11-27T11:35:28.947Z,76.21
2022-11-27T11:36:28.947Z,76.33
2022-11-27T11:37:28.925Z,75.21
2022-11-27T11:38:28.916Z,74.70
2022-11-27T11:39:28.914Z,74.80
2022-11-27T11:40:28.892Z,75.12
2022-11-27T11:41:28.866Z,75.10
2022-11-27T11:42:28.855Z,75.05
2022-11-27T11:43:28.846Z,74.71
2022-11-27T11:44:28.834Z,74.96
2022-11-27T11:45:32.617Z,75.35
2022-11-27T11:46:28.816Z,76.42
2022-11-27T11:47:28.793Z,76.07
2022-11-27T11:48:28.774Z,76.07
2022-11-27T11:49:28.781Z,75.05
2022-11-27T11:50:28.751Z,74.04
2022-11-27T11:51:29.509Z,73.84
2022-11-27T11:52:28.716Z,75.10
2022-11-27T11:53:28.706Z,73.86
2022-11-27T11:54:28.695Z,73.80
2022-11-27T11:55:28.684Z,74.60
2022-11-27T11:56:28.674Z,74.07
2022-11-27T11:57:28.698Z,73.71
2022-11-27T11:58:28.636Z,73.15
2022-11-27T11:59:28.647Z,73.84
2022-11-27T12:00:32.331Z,74.01
2022-11-27T12:01:29.595Z,73.99
2022-11-27T12:02:28.708Z,73.16
2022-11-27T12:03:28.605Z,72.95
2022-11-27T12:04:28.657Z,72.08
2022-11-27T12:05:28.545Z,72.67
2022-11-27T12:06:28.544Z,72.44
2022-11-27T12:07:28.535Z,72.53
2022-11-27T12:08:28.506Z,73.42
2022-11-27T12:09:28.526Z,73.21
2022-11-27T12:10:28.482Z,73.59
2022-11-27T12:11:28.466Z,74.65
2022-11-27T12:12:28.460Z,74.24
2022-11-27T12:13:32.926Z,74.06
2022-11-27T12:14:29.445Z,74.01
2022-11-27T12:15:28.415Z,74.56
2022-11-27T12:16:28.449Z,74.55
2022-11-27T12:17:28.385Z,74.30
2022-11-27T12:18:28.365Z,74.42
2022-11-27T12:19:28.375Z,74.62
2022-11-27T12:20:28.373Z,74.68
2022-11-27T12:21:28.332Z,74.85
2022-11-27T12:22:28.313Z,74.79
2022-11-27T12:23:28.305Z,75.32
2022-11-27T12:24:28.284Z,75.72
2022-11-27T12:25:28.282Z,75.24
2022-11-27T12:26:28.288Z,75.53
2022-11-27T12:27:28.257Z,75.35
2022-11-27T12:28:28.236Z,75.20
2022-11-27T12:29:28.232Z,75.22
2022-11-27T12:30:28.204Z,75.24
2022-11-27T12:31:28.243Z,75.31
2022-11-27T12:32:28.204Z,74.77
2022-11-27T12:33:28.167Z,74.86
2022-11-27T12:34:28.154Z,74.92
2022-11-27T12:35:28.144Z,74.85
2022-11-27T12:36:28.124Z,74.72
2022-11-27T12:37:28.125Z,74.41
2022-11-27T12:38:28.126Z,74.32
2022-11-27T12:39:28.111Z,74.37
2022-11-27T12:40:28.074Z,75.18
2022-11-27T12:41:28.064Z,75.33
2022-11-27T12:42:28.044Z,74.49
2022-11-27T12:43:28.035Z,74.58
2022-11-27T12:44:28.034Z,73.82
2022-11-27T12:45:28.039Z,74.07
2022-11-27T12:46:28.067Z,74.10
2022-11-27T12:47:27.985Z,74.08
2022-11-27T12:48:27.965Z,73.95
2022-11-27T12:49:27.973Z,73.70
2022-11-27T12:50:27.962Z,73.21
2022-11-27T12:51:27.935Z,72.92
2022-11-27T12:52:27.925Z,72.69
2022-11-27T12:53:27.923Z,72.55
2022-11-27T12:54:27.884Z,72.53